Terminal Aerodrome Forecast
Issued by NWS North Platte, NE

Home | Current Version | Previous Version | Text Only | Print | Product List | Glossary On
Versions: 1 2 3 4 5 6 7 8 9 10 11 12 13 14
682
FTUS43 KLBF 110827 AAA
TAFLBF
TAF AMD
KLBF 110827Z 1108/1206 02006KT P6SM FEW005
     FM110900 03005KT P6SM OVC005
      TEMPO 1110/1114 2SM BR
     FM111600 17005KT P6SM OVC012
     FM111800 24006KT P6SM SCT100
     FM112200 29009KT P6SM SCT100=

USA.gov is the U.S. government's official web portal to all federal, state and local government web resources and services.